DXXX/LFW METAR and TAF weather

Enter ICAO airport designator
Station Type Date Time Source
DXXX METAR 2020/07/15 08:00 UTC NOAA

DXXX 150800Z 24010KT 9999 SCT011 26/22 Q1014 NOSIG


Station Type Date Time Source
DXXX Decoded METAR 2020/07/15 08:00 UTC NOAA

Lome, Togo (DXXX) 06-10N 001-15E 25M
Jul 15, 2020 - 04:00 AM EDT / 2020.07.15 0800 UTC
Wind: from the WSW (240 degrees) at 12 MPH (10 KT):0
Visibility: greater than 7 mile(s):0
Sky conditions: partly cloudy
Temperature: 78 F (26 C)
Dew Point: 71 F (22 C)
Relative Humidity: 78%
Pressure (altimeter): 29.94 in. Hg (1014 hPa)
ob: DXXX 150800Z 24010KT 9999 SCT011 26/22 Q1014 NOSIG
cycle: 8

Station Type Date Time Source
DXXX TAF 2020/07/15 06:30 UTC NOAA

TAF DXXX 150500Z 1506/1612 22013KT 9999 FEW012

Example: see airport list